sensor_id;sensor_type;location;lat;lon;timestamp;P1;durP1;ratioP1;P2;durP2;ratioP2
33826;SDS011;20128;45.582;5.298;2022-11-20T00:02:22;7.70;;;2.72;;
33826;SDS011;20128;45.582;5.298;2022-11-20T00:04:48;9.35;;;3.40;;
33826;SDS011;20128;45.582;5.298;2022-11-20T00:07:13;19.63;;;3.95;;
33826;SDS011;20128;45.582;5.298;2022-11-20T00:09:39;7.93;;;3.15;;
33826;SDS011;20128;45.582;5.298;2022-11-20T00:12:05;6.93;;;3.20;;
33826;SDS011;20128;45.582;5.298;2022-11-20T00:14:31;8.32;;;3.92;;
33826;SDS011;20128;45.582;5.298;2022-11-20T00:16:56;6.60;;;2.90;;
33826;SDS011;20128;45.582;5.298;2022-11-20T00:19:22;7.75;;;3.13;;
33826;SDS011;20128;45.582;5.298;2022-11-20T00:21:47;10.80;;;3.47;;
33826;SDS011;20128;45.582;5.298;2022-11-20T00:24:16;8.20;;;3.63;;
33826;SDS011;20128;45.582;5.298;2022-11-20T00:26:42;12.32;;;3.75;;
33826;SDS011;20128;45.582;5.298;2022-11-20T00:29:08;8.18;;;3.65;;
33826;SDS011;20128;45.582;5.298;2022-11-20T00:31:35;12.50;;;3.47;;
33826;SDS011;20128;45.582;5.298;2022-11-20T00:34:01;10.55;;;3.33;;
33826;SDS011;20128;45.582;5.298;2022-11-20T00:36:27;7.90;;;2.92;;
33826;SDS011;20128;45.582;5.298;2022-11-20T00:38:55;8.27;;;3.45;;
33826;SDS011;20128;45.582;5.298;2022-11-20T00:41:22;10.20;;;3.65;;
33826;SDS011;20128;45.582;5.298;2022-11-20T00:43:49;10.32;;;3.67;;
33826;SDS011;20128;45.582;5.298;2022-11-20T00:46:17;7.93;;;3.30;;
33826;SDS011;20128;45.582;5.298;2022-11-20T00:48:44;12.60;;;3.70;;
33826;SDS011;20128;45.582;5.298;2022-11-20T00:51:14;7.43;;;4.15;;
33826;SDS011;20128;45.582;5.298;2022-11-20T00:53:44;7.10;;;3.83;;
33826;SDS011;20128;45.582;5.298;2022-11-20T00:56:11;8.55;;;3.97;;
33826;SDS011;20128;45.582;5.298;2022-11-20T00:58:39;13.68;;;4.07;;
33826;SDS011;20128;45.582;5.298;2022-11-20T01:01:07;9.00;;;4.28;;
33826;SDS011;20128;45.582;5.298;2022-11-20T01:03:35;15.52;;;4.40;;
33826;SDS011;20128;45.582;5.298;2022-11-20T01:06:04;12.88;;;3.92;;
33826;SDS011;20128;45.582;5.298;2022-11-20T01:08:32;12.13;;;3.92;;
33826;SDS011;20128;45.582;5.298;2022-11-20T01:11:02;10.00;;;4.53;;
33826;SDS011;20128;45.582;5.298;2022-11-20T01:13:32;10.65;;;3.90;;
33826;SDS011;20128;45.582;5.298;2022-11-20T01:18:41;16.45;;;4.55;;
33826;SDS011;20128;45.582;5.298;2022-11-20T01:21:09;13.38;;;4.18;;
33826;SDS011;20128;45.582;5.298;2022-11-20T01:23:40;11.82;;;5.07;;
33826;SDS011;20128;45.582;5.298;2022-11-20T01:26:09;13.15;;;4.80;;
33826;SDS011;20128;45.582;5.298;2022-11-20T01:28:36;13.43;;;5.07;;
33826;SDS011;20128;45.582;5.298;2022-11-20T01:31:10;18.85;;;5.45;;
33826;SDS011;20128;45.582;5.298;2022-11-20T01:33:36;8.10;;;3.63;;
33826;SDS011;20128;45.582;5.298;2022-11-20T01:36:03;15.95;;;4.80;;
33826;SDS011;20128;45.582;5.298;2022-11-20T01:38:30;15.18;;;4.88;;
33826;SDS011;20128;45.582;5.298;2022-11-20T01:40:56;13.13;;;4.38;;
33826;SDS011;20128;45.582;5.298;2022-11-20T01:43:22;13.23;;;4.15;;
33826;SDS011;20128;45.582;5.298;2022-11-20T01:48:15;13.38;;;4.50;;
33826;SDS011;20128;45.582;5.298;2022-11-20T01:50:42;11.45;;;4.25;;
33826;SDS011;20128;45.582;5.298;2022-11-20T01:53:09;11.13;;;4.03;;
33826;SDS011;20128;45.582;5.298;2022-11-20T01:55:49;9.52;;;4.07;;
33826;SDS011;20128;45.582;5.298;2022-11-20T01:58:19;14.05;;;4.30;;
33826;SDS011;20128;45.582;5.298;2022-11-20T02:00:47;12.27;;;4.68;;
33826;SDS011;20128;45.582;5.298;2022-11-20T02:03:15;10.52;;;4.57;;
33826;SDS011;20128;45.582;5.298;2022-11-20T02:05:45;10.95;;;4.47;;
33826;SDS011;20128;45.582;5.298;2022-11-20T02:08:19;13.35;;;3.92;;
33826;SDS011;20128;45.582;5.298;2022-11-20T02:10:46;11.45;;;3.78;;
33826;SDS011;20128;45.582;5.298;2022-11-20T02:13:12;7.55;;;4.25;;
33826;SDS011;20128;45.582;5.298;2022-11-20T02:15:56;10.13;;;4.22;;
33826;SDS011;20128;45.582;5.298;2022-11-20T02:18:22;7.35;;;3.72;;
33826;SDS011;20128;45.582;5.298;2022-11-20T02:20:50;10.18;;;3.70;;
33826;SDS011;20128;45.582;5.298;2022-11-20T02:23:28;7.20;;;4.20;;
33826;SDS011;20128;45.582;5.298;2022-11-20T02:25:58;15.55;;;4.60;;
33826;SDS011;20128;45.582;5.298;2022-11-20T02:28:28;8.20;;;3.90;;
33826;SDS011;20128;45.582;5.298;2022-11-20T02:30:54;9.57;;;4.38;;
33826;SDS011;20128;45.582;5.298;2022-11-20T02:33:19;9.52;;;3.85;;
33826;SDS011;20128;45.582;5.298;2022-11-20T02:35:45;6.85;;;3.75;;
33826;SDS011;20128;45.582;5.298;2022-11-20T02:38:12;14.23;;;4.35;;
33826;SDS011;20128;45.582;5.298;2022-11-20T02:40:39;8.65;;;4.05;;
33826;SDS011;20128;45.582;5.298;2022-11-20T02:43:05;13.70;;;4.40;;
33826;SDS011;20128;45.582;5.298;2022-11-20T02:45:31;10.50;;;4.45;;
33826;SDS011;20128;45.582;5.298;2022-11-20T02:47:56;8.77;;;4.18;;
33826;SDS011;20128;45.582;5.298;2022-11-20T02:50:22;11.27;;;4.18;;
33826;SDS011;20128;45.582;5.298;2022-11-20T02:52:48;6.75;;;3.83;;
33826;SDS011;20128;45.582;5.298;2022-11-20T02:55:13;9.05;;;3.80;;
33826;SDS011;20128;45.582;5.298;2022-11-20T02:57:39;12.13;;;3.85;;
33826;SDS011;20128;45.582;5.298;2022-11-20T03:00:05;11.95;;;3.90;;
33826;SDS011;20128;45.582;5.298;2022-11-20T03:02:32;9.23;;;4.45;;
33826;SDS011;20128;45.582;5.298;2022-11-20T03:04:57;5.40;;;3.65;;
33826;SDS011;20128;45.582;5.298;2022-11-20T03:07:23;10.30;;;4.10;;
33826;SDS011;20128;45.582;5.298;2022-11-20T03:09:49;7.20;;;3.65;;
33826;SDS011;20128;45.582;5.298;2022-11-20T03:12:14;13.25;;;4.43;;
33826;SDS011;20128;45.582;5.298;2022-11-20T03:14:40;8.18;;;3.90;;
33826;SDS011;20128;45.582;5.298;2022-11-20T03:17:06;9.50;;;4.05;;
33826;SDS011;20128;45.582;5.298;2022-11-20T03:19:31;8.68;;;3.80;;
33826;SDS011;20128;45.582;5.298;2022-11-20T03:21:57;8.70;;;4.13;;
33826;SDS011;20128;45.582;5.298;2022-11-20T03:24:23;8.20;;;4.18;;
33826;SDS011;20128;45.582;5.298;2022-11-20T03:26:48;11.50;;;4.45;;
33826;SDS011;20128;45.582;5.298;2022-11-20T03:29:14;11.98;;;4.45;;
33826;SDS011;20128;45.582;5.298;2022-11-20T03:31:40;13.93;;;4.15;;
33826;SDS011;20128;45.582;5.298;2022-11-20T03:34:06;10.93;;;3.95;;
33826;SDS011;20128;45.582;5.298;2022-11-20T03:36:33;13.98;;;4.28;;
33826;SDS011;20128;45.582;5.298;2022-11-20T03:38:59;10.18;;;4.28;;
33826;SDS011;20128;45.582;5.298;2022-11-20T03:41:26;8.48;;;4.47;;
33826;SDS011;20128;45.582;5.298;2022-11-20T03:43:57;12.05;;;4.50;;
33826;SDS011;20128;45.582;5.298;2022-11-20T03:46:24;14.02;;;5.05;;
33826;SDS011;20128;45.582;5.298;2022-11-20T03:48:50;11.00;;;4.25;;
33826;SDS011;20128;45.582;5.298;2022-11-20T03:51:18;8.38;;;4.43;;
33826;SDS011;20128;45.582;5.298;2022-11-20T03:53:44;10.73;;;5.20;;
33826;SDS011;20128;45.582;5.298;2022-11-20T03:56:11;12.43;;;4.70;;
33826;SDS011;20128;45.582;5.298;2022-11-20T03:58:38;11.02;;;4.72;;
33826;SDS011;20128;45.582;5.298;2022-11-20T04:01:08;12.00;;;4.50;;
33826;SDS011;20128;45.582;5.298;2022-11-20T04:03:36;11.13;;;4.55;;
33826;SDS011;20128;45.582;5.298;2022-11-20T04:06:13;8.73;;;4.18;;
33826;SDS011;20128;45.582;5.298;2022-11-20T04:08:41;8.90;;;4.05;;
33826;SDS011;20128;45.582;5.298;2022-11-20T04:11:22;11.25;;;4.53;;
33826;SDS011;20128;45.582;5.298;2022-11-20T04:13:56;12.00;;;5.30;;
33826;SDS011;20128;45.582;5.298;2022-11-20T04:16:24;7.82;;;4.57;;
33826;SDS011;20128;45.582;5.298;2022-11-20T04:18:53;12.02;;;5.13;;
33826;SDS011;20128;45.582;5.298;2022-11-20T04:21:20;8.68;;;5.13;;
33826;SDS011;20128;45.582;5.298;2022-11-20T04:23:46;9.57;;;4.55;;
33826;SDS011;20128;45.582;5.298;2022-11-20T04:26:13;12.48;;;4.85;;
33826;SDS011;20128;45.582;5.298;2022-11-20T04:28:38;10.98;;;4.60;;
33826;SDS011;20128;45.582;5.298;2022-11-20T04:31:08;8.82;;;4.32;;
33826;SDS011;20128;45.582;5.298;2022-11-20T04:33:37;12.35;;;4.95;;
33826;SDS011;20128;45.582;5.298;2022-11-20T04:36:10;16.55;;;4.13;;
33826;SDS011;20128;45.582;5.298;2022-11-20T04:38:44;10.20;;;5.13;;
33826;SDS011;20128;45.582;5.298;2022-11-20T04:41:19;9.05;;;3.90;;
33826;SDS011;20128;45.582;5.298;2022-11-20T04:43:47;10.70;;;4.88;;
33826;SDS011;20128;45.582;5.298;2022-11-20T04:46:14;8.23;;;4.43;;
33826;SDS011;20128;45.582;5.298;2022-11-20T04:48:40;9.80;;;4.88;;
33826;SDS011;20128;45.582;5.298;2022-11-20T04:51:06;11.15;;;4.03;;
33826;SDS011;20128;45.582;5.298;2022-11-20T04:53:31;11.70;;;4.43;;
33826;SDS011;20128;45.582;5.298;2022-11-20T04:56:01;8.25;;;3.92;;
33826;SDS011;20128;45.582;5.298;2022-11-20T04:58:28;11.77;;;4.55;;
33826;SDS011;20128;45.582;5.298;2022-11-20T05:00:53;14.93;;;4.70;;
33826;SDS011;20128;45.582;5.298;2022-11-20T05:03:25;9.65;;;4.72;;
33826;SDS011;20128;45.582;5.298;2022-11-20T05:05:50;12.30;;;3.85;;
33826;SDS011;20128;45.582;5.298;2022-11-20T05:08:16;12.60;;;4.35;;
33826;SDS011;20128;45.582;5.298;2022-11-20T05:10:42;14.10;;;4.65;;
33826;SDS011;20128;45.582;5.298;2022-11-20T05:13:07;11.50;;;4.70;;
33826;SDS011;20128;45.582;5.298;2022-11-20T05:15:33;8.75;;;3.75;;
33826;SDS011;20128;45.582;5.298;2022-11-20T05:17:58;12.65;;;3.80;;
33826;SDS011;20128;45.582;5.298;2022-11-20T05:20:24;10.27;;;3.58;;
33826;SDS011;20128;45.582;5.298;2022-11-20T05:22:49;11.63;;;3.85;;
33826;SDS011;20128;45.582;5.298;2022-11-20T05:25:15;9.07;;;3.97;;
33826;SDS011;20128;45.582;5.298;2022-11-20T05:27:41;8.85;;;3.72;;
33826;SDS011;20128;45.582;5.298;2022-11-20T05:30:07;11.75;;;3.45;;
33826;SDS011;20128;45.582;5.298;2022-11-20T05:32:33;9.13;;;3.70;;
33826;SDS011;20128;45.582;5.298;2022-11-20T05:34:59;11.52;;;4.00;;
33826;SDS011;20128;45.582;5.298;2022-11-20T05:37:25;8.45;;;4.18;;
33826;SDS011;20128;45.582;5.298;2022-11-20T05:39:50;13.00;;;4.05;;
33826;SDS011;20128;45.582;5.298;2022-11-20T05:42:16;8.43;;;4.13;;
33826;SDS011;20128;45.582;5.298;2022-11-20T05:45:01;11.15;;;4.00;;
33826;SDS011;20128;45.582;5.298;2022-11-20T05:47:31;7.35;;;3.72;;
33826;SDS011;20128;45.582;5.298;2022-11-20T05:49:58;8.63;;;4.47;;
33826;SDS011;20128;45.582;5.298;2022-11-20T05:52:24;7.38;;;3.78;;
33826;SDS011;20128;45.582;5.298;2022-11-20T05:54:52;8.07;;;4.18;;
33826;SDS011;20128;45.582;5.298;2022-11-20T05:57:18;11.60;;;4.00;;
33826;SDS011;20128;45.582;5.298;2022-11-20T05:59:44;8.52;;;4.15;;
33826;SDS011;20128;45.582;5.298;2022-11-20T06:02:09;8.88;;;4.40;;
33826;SDS011;20128;45.582;5.298;2022-11-20T06:04:35;8.98;;;5.38;;
33826;SDS011;20128;45.582;5.298;2022-11-20T06:07:00;12.05;;;4.85;;
33826;SDS011;20128;45.582;5.298;2022-11-20T06:09:26;10.35;;;4.30;;
33826;SDS011;20128;45.582;5.298;2022-11-20T06:11:52;8.07;;;4.10;;
33826;SDS011;20128;45.582;5.298;2022-11-20T06:14:17;8.52;;;4.15;;
33826;SDS011;20128;45.582;5.298;2022-11-20T06:16:43;7.70;;;4.10;;
33826;SDS011;20128;45.582;5.298;2022-11-20T06:19:09;10.13;;;3.78;;
33826;SDS011;20128;45.582;5.298;2022-11-20T06:21:34;7.85;;;4.07;;
33826;SDS011;20128;45.582;5.298;2022-11-20T06:24:00;9.45;;;4.65;;
33826;SDS011;20128;45.582;5.298;2022-11-20T06:26:26;13.65;;;4.57;;
33826;SDS011;20128;45.582;5.298;2022-11-20T06:28:52;12.85;;;5.43;;
33826;SDS011;20128;45.582;5.298;2022-11-20T06:31:20;10.48;;;4.20;;
33826;SDS011;20128;45.582;5.298;2022-11-20T06:33:47;10.88;;;3.45;;
33826;SDS011;20128;45.582;5.298;2022-11-20T06:36:15;14.88;;;3.67;;
33826;SDS011;20128;45.582;5.298;2022-11-20T06:38:42;11.73;;;3.83;;
33826;SDS011;20128;45.582;5.298;2022-11-20T06:41:10;9.60;;;3.75;;
33826;SDS011;20128;45.582;5.298;2022-11-20T06:43:40;9.07;;;4.03;;
33826;SDS011;20128;45.582;5.298;2022-11-20T06:46:06;6.28;;;3.53;;
33826;SDS011;20128;45.582;5.298;2022-11-20T06:48:33;12.00;;;3.50;;
33826;SDS011;20128;45.582;5.298;2022-11-20T06:50:59;13.77;;;5.95;;
33826;SDS011;20128;45.582;5.298;2022-11-20T06:53:27;15.88;;;6.80;;
33826;SDS011;20128;45.582;5.298;2022-11-20T06:55:55;10.60;;;5.45;;
33826;SDS011;20128;45.582;5.298;2022-11-20T06:58:21;9.90;;;5.05;;
33826;SDS011;20128;45.582;5.298;2022-11-20T07:00:47;13.90;;;6.63;;
33826;SDS011;20128;45.582;5.298;2022-11-20T07:03:12;13.00;;;5.35;;
33826;SDS011;20128;45.582;5.298;2022-11-20T07:05:38;24.38;;;5.88;;
33826;SDS011;20128;45.582;5.298;2022-11-20T07:08:05;11.73;;;4.30;;
33826;SDS011;20128;45.582;5.298;2022-11-20T07:10:31;9.90;;;4.45;;
33826;SDS011;20128;45.582;5.298;2022-11-20T07:12:57;10.63;;;4.57;;
33826;SDS011;20128;45.582;5.298;2022-11-20T07:15:23;13.65;;;6.40;;
33826;SDS011;20128;45.582;5.298;2022-11-20T07:17:50;11.02;;;5.43;;
33826;SDS011;20128;45.582;5.298;2022-11-20T07:20:16;20.90;;;7.22;;
33826;SDS011;20128;45.582;5.298;2022-11-20T07:22:41;8.60;;;5.10;;
33826;SDS011;20128;45.582;5.298;2022-11-20T07:25:08;12.45;;;5.10;;
33826;SDS011;20128;45.582;5.298;2022-11-20T07:27:34;11.48;;;5.28;;
33826;SDS011;20128;45.582;5.298;2022-11-20T07:30:00;10.90;;;4.75;;
33826;SDS011;20128;45.582;5.298;2022-11-20T07:32:26;12.75;;;4.95;;
33826;SDS011;20128;45.582;5.298;2022-11-20T07:34:51;12.20;;;4.90;;
33826;SDS011;20128;45.582;5.298;2022-11-20T07:37:17;14.63;;;5.32;;
33826;SDS011;20128;45.582;5.298;2022-11-20T07:39:43;10.27;;;5.20;;
33826;SDS011;20128;45.582;5.298;2022-11-20T07:42:09;13.23;;;5.38;;
33826;SDS011;20128;45.582;5.298;2022-11-20T07:44:35;12.07;;;4.63;;
33826;SDS011;20128;45.582;5.298;2022-11-20T07:47:01;14.95;;;5.45;;
33826;SDS011;20128;45.582;5.298;2022-11-20T07:49:27;10.90;;;4.88;;
33826;SDS011;20128;45.582;5.298;2022-11-20T07:51:52;10.43;;;5.13;;
33826;SDS011;20128;45.582;5.298;2022-11-20T07:54:19;12.25;;;4.72;;
33826;SDS011;20128;45.582;5.298;2022-11-20T07:56:45;16.42;;;4.30;;
33826;SDS011;20128;45.582;5.298;2022-11-20T07:59:11;17.98;;;7.18;;
33826;SDS011;20128;45.582;5.298;2022-11-20T08:01:37;15.60;;;7.03;;
33826;SDS011;20128;45.582;5.298;2022-11-20T08:04:03;16.63;;;5.93;;
33826;SDS011;20128;45.582;5.298;2022-11-20T08:06:29;16.33;;;5.38;;
33826;SDS011;20128;45.582;5.298;2022-11-20T08:08:55;16.73;;;7.20;;
33826;SDS011;20128;45.582;5.298;2022-11-20T08:11:21;12.52;;;6.05;;
33826;SDS011;20128;45.582;5.298;2022-11-20T08:14:06;12.23;;;6.32;;
33826;SDS011;20128;45.582;5.298;2022-11-20T08:16:47;12.25;;;5.88;;
33826;SDS011;20128;45.582;5.298;2022-11-20T08:19:15;11.30;;;4.80;;
33826;SDS011;20128;45.582;5.298;2022-11-20T08:21:42;12.95;;;5.40;;
33826;SDS011;20128;45.582;5.298;2022-11-20T08:24:08;14.80;;;5.40;;
33826;SDS011;20128;45.582;5.298;2022-11-20T08:26:35;10.77;;;4.82;;
33826;SDS011;20128;45.582;5.298;2022-11-20T08:29:02;17.73;;;5.80;;
33826;SDS011;20128;45.582;5.298;2022-11-20T08:31:28;13.85;;;6.18;;
33826;SDS011;20128;45.582;5.298;2022-11-20T08:33:54;13.07;;;6.18;;
33826;SDS011;20128;45.582;5.298;2022-11-20T08:36:20;14.10;;;5.47;;
33826;SDS011;20128;45.582;5.298;2022-11-20T08:38:48;10.05;;;4.97;;
33826;SDS011;20128;45.582;5.298;2022-11-20T08:41:18;18.05;;;6.15;;
33826;SDS011;20128;45.582;5.298;2022-11-20T08:46:24;14.18;;;6.03;;
33826;SDS011;20128;45.582;5.298;2022-11-20T08:48:50;11.95;;;6.35;;
33826;SDS011;20128;45.582;5.298;2022-11-20T08:51:16;17.27;;;8.20;;
33826;SDS011;20128;45.582;5.298;2022-11-20T08:53:43;16.48;;;7.53;;
33826;SDS011;20128;45.582;5.298;2022-11-20T08:56:09;16.35;;;7.00;;
33826;SDS011;20128;45.582;5.298;2022-11-20T08:58:35;16.02;;;6.53;;
33826;SDS011;20128;45.582;5.298;2022-11-20T09:01:01;16.48;;;8.27;;
33826;SDS011;20128;45.582;5.298;2022-11-20T09:03:27;14.57;;;7.50;;
33826;SDS011;20128;45.582;5.298;2022-11-20T09:05:56;15.52;;;6.28;;
33826;SDS011;20128;45.582;5.298;2022-11-20T09:08:23;13.40;;;6.43;;
33826;SDS011;20128;45.582;5.298;2022-11-20T09:10:52;19.48;;;6.38;;
33826;SDS011;20128;45.582;5.298;2022-11-20T09:13:18;18.00;;;6.85;;
33826;SDS011;20128;45.582;5.298;2022-11-20T09:15:44;16.48;;;7.25;;
33826;SDS011;20128;45.582;5.298;2022-11-20T09:18:10;11.55;;;5.95;;
33826;SDS011;20128;45.582;5.298;2022-11-20T09:20:36;16.20;;;6.43;;
33826;SDS011;20128;45.582;5.298;2022-11-20T09:23:01;17.63;;;6.20;;
33826;SDS011;20128;45.582;5.298;2022-11-20T09:25:28;13.32;;;6.07;;
33826;SDS011;20128;45.582;5.298;2022-11-20T09:27:54;9.27;;;4.43;;
33826;SDS011;20128;45.582;5.298;2022-11-20T09:30:21;15.00;;;4.70;;
33826;SDS011;20128;45.582;5.298;2022-11-20T09:32:46;14.43;;;4.85;;
33826;SDS011;20128;45.582;5.298;2022-11-20T09:35:12;9.85;;;4.53;;
33826;SDS011;20128;45.582;5.298;2022-11-20T09:37:39;8.60;;;2.60;;
33826;SDS011;20128;45.582;5.298;2022-11-20T09:40:05;10.55;;;3.75;;
33826;SDS011;20128;45.582;5.298;2022-11-20T09:45:16;11.00;;;3.97;;
33826;SDS011;20128;45.582;5.298;2022-11-20T09:47:51;15.38;;;3.90;;
33826;SDS011;20128;45.582;5.298;2022-11-20T09:55:37;9.02;;;4.13;;
33826;SDS011;20128;45.582;5.298;2022-11-20T09:58:05;12.45;;;4.00;;
33826;SDS011;20128;45.582;5.298;2022-11-20T10:00:32;8.30;;;3.83;;
33826;SDS011;20128;45.582;5.298;2022-11-20T10:03:14;9.40;;;3.67;;
33826;SDS011;20128;45.582;5.298;2022-11-20T10:10:47;13.15;;;3.50;;
33826;SDS011;20128;45.582;5.298;2022-11-20T10:13:27;8.05;;;3.08;;
33826;SDS011;20128;45.582;5.298;2022-11-20T10:19:10;11.77;;;2.70;;
33826;SDS011;20128;45.582;5.298;2022-11-20T10:22:07;7.60;;;3.10;;
33826;SDS011;20128;45.582;5.298;2022-11-20T10:27:54;9.40;;;2.10;;
33826;SDS011;20128;45.582;5.298;2022-11-20T10:30:41;5.80;;;2.22;;
33826;SDS011;20128;45.582;5.298;2022-11-20T10:33:19;7.68;;;2.20;;
33826;SDS011;20128;45.582;5.298;2022-11-20T10:41:04;6.95;;;2.03;;
33826;SDS011;20128;45.582;5.298;2022-11-20T10:43:49;7.28;;;2.22;;
33826;SDS011;20128;45.582;5.298;2022-11-20T10:46:24;10.18;;;2.72;;
33826;SDS011;20128;45.582;5.298;2022-11-20T10:48:55;7.05;;;2.55;;
33826;SDS011;20128;45.582;5.298;2022-11-20T10:51:39;5.45;;;1.88;;
33826;SDS011;20128;45.582;5.298;2022-11-20T11:02:54;8.60;;;2.03;;
33826;SDS011;20128;45.582;5.298;2022-11-20T11:05:25;11.40;;;2.47;;
33826;SDS011;20128;45.582;5.298;2022-11-20T11:07:54;3.40;;;1.90;;
33826;SDS011;20128;45.582;5.298;2022-11-20T11:12:57;10.02;;;2.17;;
33826;SDS011;20128;45.582;5.298;2022-11-20T11:15:30;6.43;;;1.60;;
33826;SDS011;20128;45.582;5.298;2022-11-20T11:18:08;9.88;;;1.88;;
33826;SDS011;20128;45.582;5.298;2022-11-20T11:20:36;3.42;;;1.55;;
33826;SDS011;20128;45.582;5.298;2022-11-20T11:23:02;3.83;;;1.40;;
33826;SDS011;20128;45.582;5.298;2022-11-20T11:25:30;4.75;;;1.55;;
33826;SDS011;20128;45.582;5.298;2022-11-20T11:28:03;6.97;;;1.90;;
33826;SDS011;20128;45.582;5.298;2022-11-20T11:30:43;8.10;;;2.45;;
33826;SDS011;20128;45.582;5.298;2022-11-20T11:33:10;11.35;;;5.07;;
33826;SDS011;20128;45.582;5.298;2022-11-20T11:35:46;8.88;;;1.90;;
33826;SDS011;20128;45.582;5.298;2022-11-20T11:38:19;5.80;;;1.60;;
33826;SDS011;20128;45.582;5.298;2022-11-20T11:40:48;6.93;;;2.22;;
33826;SDS011;20128;45.582;5.298;2022-11-20T11:43:22;5.78;;;1.98;;
33826;SDS011;20128;45.582;5.298;2022-11-20T11:48:55;5.05;;;1.83;;
33826;SDS011;20128;45.582;5.298;2022-11-20T11:51:41;7.25;;;2.08;;
33826;SDS011;20128;45.582;5.298;2022-11-20T11:54:14;4.85;;;2.10;;
33826;SDS011;20128;45.582;5.298;2022-11-20T11:56:49;7.22;;;2.40;;
33826;SDS011;20128;45.582;5.298;2022-11-20T11:59:22;7.82;;;2.15;;
33826;SDS011;20128;45.582;5.298;2022-11-20T12:02:11;5.10;;;1.50;;
33826;SDS011;20128;45.582;5.298;2022-11-20T12:07:59;1.58;;;1.02;;
33826;SDS011;20128;45.582;5.298;2022-11-20T12:13:02;3.42;;;1.73;;
33826;SDS011;20128;45.582;5.298;2022-11-20T12:15:37;2.95;;;1.52;;
33826;SDS011;20128;45.582;5.298;2022-11-20T12:18:10;9.65;;;1.70;;
33826;SDS011;20128;45.582;5.298;2022-11-20T12:20:42;4.15;;;1.10;;
33826;SDS011;20128;45.582;5.298;2022-11-20T12:23:25;5.82;;;1.63;;
33826;SDS011;20128;45.582;5.298;2022-11-20T12:26:00;4.15;;;1.63;;
33826;SDS011;20128;45.582;5.298;2022-11-20T12:31:14;3.95;;;1.45;;
33826;SDS011;20128;45.582;5.298;2022-11-20T12:33:47;3.85;;;1.60;;
33826;SDS011;20128;45.582;5.298;2022-11-20T12:36:38;8.73;;;1.40;;
33826;SDS011;20128;45.582;5.298;2022-11-20T12:42:38;5.03;;;1.20;;
33826;SDS011;20128;45.582;5.298;2022-11-20T12:46:06;6.50;;;1.50;;
33826;SDS011;20128;45.582;5.298;2022-11-20T12:53:43;4.22;;;1.48;;
33826;SDS011;20128;45.582;5.298;2022-11-20T13:07:38;4.53;;;1.80;;
33826;SDS011;20128;45.582;5.298;2022-11-20T13:10:05;8.60;;;2.00;;
33826;SDS011;20128;45.582;5.298;2022-11-20T13:12:47;3.90;;;2.00;;
33826;SDS011;20128;45.582;5.298;2022-11-20T13:15:33;2.88;;;1.50;;
33826;SDS011;20128;45.582;5.298;2022-11-20T13:18:10;4.20;;;1.40;;
33826;SDS011;20128;45.582;5.298;2022-11-20T13:20:41;4.88;;;1.20;;
33826;SDS011;20128;45.582;5.298;2022-11-20T13:23:09;4.45;;;1.30;;
33826;SDS011;20128;45.582;5.298;2022-11-20T13:25:35;3.13;;;1.10;;
33826;SDS011;20128;45.582;5.298;2022-11-20T13:28:03;3.55;;;1.40;;
33826;SDS011;20128;45.582;5.298;2022-11-20T13:30:30;4.18;;;1.15;;
33826;SDS011;20128;45.582;5.298;2022-11-20T13:32:57;6.00;;;1.50;;
33826;SDS011;20128;45.582;5.298;2022-11-20T13:35:30;2.17;;;1.10;;
33826;SDS011;20128;45.582;5.298;2022-11-20T13:38:10;3.45;;;1.15;;
33826;SDS011;20128;45.582;5.298;2022-11-20T13:40:39;1.92;;;1.05;;
33826;SDS011;20128;45.582;5.298;2022-11-20T13:43:18;2.97;;;1.27;;
33826;SDS011;20128;45.582;5.298;2022-11-20T13:46:01;4.70;;;1.55;;
33826;SDS011;20128;45.582;5.298;2022-11-20T13:48:41;3.90;;;1.17;;
33826;SDS011;20128;45.582;5.298;2022-11-20T14:02:21;142.32;;;35.60;;
33826;SDS011;20128;45.582;5.298;2022-11-20T14:04:51;92.50;;;22.83;;
33826;SDS011;20128;45.582;5.298;2022-11-20T14:07:21;73.85;;;19.65;;
33826;SDS011;20128;45.582;5.298;2022-11-20T14:09:51;65.75;;;15.43;;
33826;SDS011;20128;45.582;5.298;2022-11-20T14:12:22;40.53;;;8.82;;
33826;SDS011;20128;45.582;5.298;2022-11-20T14:14:53;41.63;;;11.27;;
33826;SDS011;20128;45.582;5.298;2022-11-20T14:20:00;25.70;;;5.55;;
33826;SDS011;20128;45.582;5.298;2022-11-20T14:22:30;26.67;;;6.25;;
33826;SDS011;20128;45.582;5.298;2022-11-20T14:27:40;25.90;;;7.20;;
33826;SDS011;20128;45.582;5.298;2022-11-20T14:30:14;19.38;;;6.45;;
33826;SDS011;20128;45.582;5.298;2022-11-20T14:32:42;24.92;;;7.38;;
33826;SDS011;20128;45.582;5.298;2022-11-20T14:35:14;19.58;;;6.07;;
33826;SDS011;20128;45.582;5.298;2022-11-20T14:37:52;16.80;;;5.35;;
33826;SDS011;20128;45.582;5.298;2022-11-20T14:42:52;18.85;;;5.47;;
33826;SDS011;20128;45.582;5.298;2022-11-20T14:45:18;15.27;;;4.55;;
33826;SDS011;20128;45.582;5.298;2022-11-20T14:47:46;16.05;;;4.38;;
33826;SDS011;20128;45.582;5.298;2022-11-20T14:50:22;18.70;;;4.88;;
33826;SDS011;20128;45.582;5.298;2022-11-20T14:52:53;13.77;;;3.60;;
33826;SDS011;20128;45.582;5.298;2022-11-20T14:55:28;11.05;;;4.63;;
33826;SDS011;20128;45.582;5.298;2022-11-20T14:57:57;9.43;;;2.53;;
33826;SDS011;20128;45.582;5.298;2022-11-20T15:00:24;7.20;;;1.77;;
33826;SDS011;20128;45.582;5.298;2022-11-20T15:02:52;3.53;;;1.30;;
33826;SDS011;20128;45.582;5.298;2022-11-20T15:05:20;2.20;;;1.17;;
33826;SDS011;20128;45.582;5.298;2022-11-20T15:07:49;3.15;;;1.08;;
33826;SDS011;20128;45.582;5.298;2022-11-20T15:10:23;6.60;;;1.30;;
33826;SDS011;20128;45.582;5.298;2022-11-20T15:12:54;2.90;;;1.10;;
33826;SDS011;20128;45.582;5.298;2022-11-20T15:15:26;2.90;;;0.93;;
33826;SDS011;20128;45.582;5.298;2022-11-20T15:17:58;7.88;;;1.23;;
33826;SDS011;20128;45.582;5.298;2022-11-20T15:20:26;8.02;;;2.10;;
33826;SDS011;20128;45.582;5.298;2022-11-20T15:22:54;7.00;;;1.40;;
33826;SDS011;20128;45.582;5.298;2022-11-20T15:25:20;5.50;;;1.45;;
33826;SDS011;20128;45.582;5.298;2022-11-20T15:27:46;3.42;;;1.70;;
33826;SDS011;20128;45.582;5.298;2022-11-20T15:30:19;5.60;;;2.03;;
33826;SDS011;20128;45.582;5.298;2022-11-20T15:32:45;7.00;;;1.50;;
33826;SDS011;20128;45.582;5.298;2022-11-20T15:35:12;1.92;;;1.40;;
33826;SDS011;20128;45.582;5.298;2022-11-20T15:37:39;3.30;;;1.48;;
33826;SDS011;20128;45.582;5.298;2022-11-20T15:40:05;4.15;;;1.85;;
33826;SDS011;20128;45.582;5.298;2022-11-20T15:42:31;3.08;;;1.33;;
33826;SDS011;20128;45.582;5.298;2022-11-20T15:44:58;4.97;;;1.50;;
33826;SDS011;20128;45.582;5.298;2022-11-20T15:47:28;6.28;;;2.00;;
33826;SDS011;20128;45.582;5.298;2022-11-20T15:49:57;8.75;;;2.70;;
33826;SDS011;20128;45.582;5.298;2022-11-20T15:52:23;7.30;;;3.53;;
33826;SDS011;20128;45.582;5.298;2022-11-20T15:54:48;6.82;;;3.50;;
33826;SDS011;20128;45.582;5.298;2022-11-20T15:57:14;6.28;;;3.20;;
33826;SDS011;20128;45.582;5.298;2022-11-20T15:59:40;7.63;;;3.72;;
33826;SDS011;20128;45.582;5.298;2022-11-20T16:02:11;5.07;;;2.05;;
33826;SDS011;20128;45.582;5.298;2022-11-20T16:04:38;5.95;;;2.20;;
33826;SDS011;20128;45.582;5.298;2022-11-20T16:07:04;2.83;;;1.20;;
33826;SDS011;20128;45.582;5.298;2022-11-20T16:09:29;2.83;;;1.30;;
33826;SDS011;20128;45.582;5.298;2022-11-20T16:11:55;3.97;;;1.33;;
33826;SDS011;20128;45.582;5.298;2022-11-20T16:14:23;2.80;;;1.30;;
33826;SDS011;20128;45.582;5.298;2022-11-20T16:17:26;8.60;;;3.50;;
33826;SDS011;20128;45.582;5.298;2022-11-20T16:20:09;12.48;;;4.85;;
33826;SDS011;20128;45.582;5.298;2022-11-20T16:22:36;8.73;;;4.30;;
33826;SDS011;20128;45.582;5.298;2022-11-20T16:25:02;11.98;;;5.13;;
33826;SDS011;20128;45.582;5.298;2022-11-20T16:27:27;27.23;;;9.32;;